NCAR-RAP Real-Time Weather Data

Output produced by METARs form (12 May 2021  10:15 UTC)
found at http://weather.rap.ucar.edu/surface/
 
KGSO 120954Z 03009KT 10SM OVC050 12/06 A3018 RMK AO2 SLP216 T01170061
KGSO 120854Z 04009KT 10SM BKN050 BKN060 OVC075 12/06 A3017 RMK AO2 RAB13E28 SLP211 P0000 60000 T01170061 53006
KGSO 120754Z 04009G16KT 10SM SCT043 BKN055 OVC075 13/06 A3014 RMK AO2 RAB0658E20 SLP202 P0000 T01330061
KGSO 120654Z 03008KT 10SM BKN043 BKN075 OVC100 14/07 A3015 RMK AO2 SLP207 T01390067
KGSO 120554Z 02005KT 10SM SCT045 BKN080 OVC120 13/09 A3015 RMK AO2 SLP204 T01330094 10178 20128 53003
KGSO 120454Z 00000KT 10SM SCT120 13/10 A3013 RMK AO2 SLP199 T01330100 401940117
KGSO 120354Z 00000KT 10SM SCT085 BKN110 14/11 A3014 RMK AO2 SLP203 T01390106
KGSO 120254Z 00000KT 10SM FEW080 FEW250 13/11 A3014 RMK AO2 SLP202 T01330106 53018
KGSO 120154Z 00000KT 10SM FEW250 15/10 A3012 RMK AO2 SLP195 T01500100
KGSO 120054Z 16003KT 10SM FEW045 FEW250 16/09 A3008 RMK AO2 SLP182 T01610094
KGSO 112354Z 21003KT 10SM FEW045 FEW250 18/09 A3008 RMK AO2 SLP183 T01780089 10194 20167 58002
KGSO 112254Z VRB04KT 10SM FEW045 FEW250 19/08 A3008 RMK AO2 SLP183 T01890083
KGSO 112154Z 18004KT 10SM FEW045 SCT250 19/08 A3009 RMK AO2 SLP186 T01940083
KGSO 112054Z 15005KT 10SM FEW045 FEW100 SCT180 BKN250 19/08 A3009 RMK AO2 SLP185 T01890078 58012
KGSO 111954Z 00000KT 10SM FEW045 FEW100 BKN250 18/07 A3010 RMK AO2 SLP190 T01830072
KGSO 111854Z VRB03KT 10SM FEW040 SCT055 BKN250 17/07 A3013 RMK AO2 SLP198 T01720067